Time;durP1;ratioP1;P1;durP2;ratioP2;P2;SDS_P1;SDS_P2;PMS_P1;PMS_P2;Temp;Humidity;BMP_temperature;BMP_pressure;BME280_temperature;BME280_humidity;BME280_pressure;Samples;Min_cycle;Max_cycle;Signal;HPM_P1;HPM_P2
2024/03/13 00:00:52;;;;;;;19.08;4.07;;;11.80;99.90;;;;;;5015328;28;20065;-66
2024/03/13 00:03:21;;;;;;;12.60;2.70;;;11.80;99.90;;;;;;5016576;28;20046;-67
2024/03/13 00:05:50;;;;;;;17.48;2.97;;;11.80;99.90;;;;;;5016046;28;20351;-67
2024/03/13 00:08:17;;;;;;;13.05;3.10;;;11.90;99.90;;;;;;5016501;28;20053;-67
2024/03/13 00:10:43;;;;;;;12.77;3.10;;;11.90;99.90;;;;;;5016282;28;20046;-67
2024/03/13 00:13:10;;;;;;;16.65;3.10;;;11.80;99.90;;;;;;5016469;28;20046;-66
2024/03/13 00:15:38;;;;;;;13.38;2.70;;;11.90;99.90;;;;;;5015879;28;20344;-66
2024/03/13 00:18:05;;;;;;;12.48;3.45;;;11.80;99.90;;;;;;5016520;28;20050;-66
2024/03/13 00:20:32;;;;;;;13.80;3.15;;;11.90;99.90;;;;;;5016179;28;20046;-66
2024/03/13 00:22:59;;;;;;;14.57;2.90;;;11.80;99.90;;;;;;5015823;28;20501;-66
2024/03/13 00:25:26;;;;;;;16.75;3.20;;;11.90;99.90;;;;;;5016048;28;20041;-66
2024/03/13 00:27:55;;;;;;;14.63;3.72;;;11.90;99.90;;;;;;5014861;28;20072;-66
2024/03/13 00:30:22;;;;;;;19.45;4.15;;;11.90;99.90;;;;;;5015944;28;20045;-66
2024/03/13 00:32:53;;;;;;;16.35;3.85;;;11.90;99.90;;;;;;5015866;28;20041;-66
2024/03/13 00:35:21;;;;;;;17.65;4.15;;;11.90;99.90;;;;;;5015613;28;20046;-66
2024/03/13 00:37:47;;;;;;;20.17;4.60;;;11.90;99.90;;;;;;5015524;28;20034;-66
2024/03/13 00:40:14;;;;;;;18.45;4.93;;;11.80;99.90;;;;;;5015768;28;20213;-66
2024/03/13 00:42:42;;;;;;;22.77;4.60;;;11.80;99.90;;;;;;5015663;28;20053;-67
2024/03/13 00:45:11;;;;;;;18.45;4.18;;;11.80;99.90;;;;;;5015482;28;20116;-67
2024/03/13 00:47:38;;;;;;;23.23;4.70;;;11.80;99.90;;;;;;5015511;28;20096;-66
2024/03/13 00:50:07;;;;;;;17.70;4.07;;;11.80;99.90;;;;;;5015592;28;20181;-67
2024/03/13 00:52:36;;;;;;;29.52;4.68;;;11.80;99.90;;;;;;5015122;28;20124;-66
2024/03/13 00:55:03;;;;;;;24.38;4.85;;;11.80;99.90;;;;;;5015253;28;20052;-66
2024/03/13 00:57:30;;;;;;;21.00;4.50;;;11.80;99.90;;;;;;5015334;28;20069;-66
2024/03/13 00:59:58;;;;;;;20.35;4.35;;;11.80;99.90;;;;;;5015161;28;20129;-67
2024/03/13 01:02:25;;;;;;;24.70;3.92;;;11.80;99.90;;;;;;5015279;28;20383;-67
2024/03/13 01:04:54;;;;;;;20.98;4.13;;;11.70;99.90;;;;;;5015499;28;20042;-67
2024/03/13 01:07:22;;;;;;;17.13;3.42;;;11.70;99.90;;;;;;5013899;28;20554;-66
2024/03/13 01:09:49;;;;;;;16.65;2.97;;;11.70;99.90;;;;;;5013744;28;20107;-67
2024/03/13 01:12:19;;;;;;;22.00;4.35;;;11.70;99.90;;;;;;5014753;28;20440;-67
2024/03/13 01:14:46;;;;;;;19.58;4.05;;;11.80;99.90;;;;;;5014519;28;20053;-66
2024/03/13 01:17:13;;;;;;;18.98;3.50;;;11.80;99.90;;;;;;5014583;28;20393;-66
2024/03/13 01:19:39;;;;;;;16.65;3.40;;;11.70;99.90;;;;;;5014819;28;20494;-66
2024/03/13 01:22:12;;;;;;;13.82;3.03;;;11.70;99.90;;;;;;5014676;28;20073;-67
2024/03/13 01:24:39;;;;;;;15.13;2.90;;;11.80;99.90;;;;;;5014811;28;20443;-67
2024/03/13 01:27:06;;;;;;;14.13;3.22;;;11.70;99.90;;;;;;5014675;28;20120;-67
2024/03/13 01:29:33;;;;;;;16.17;2.90;;;11.70;99.90;;;;;;5014870;28;20038;-66
2024/03/13 01:32:00;;;;;;;16.63;3.65;;;11.70;99.90;;;;;;5014836;28;20037;-66
2024/03/13 01:34:27;;;;;;;17.90;3.05;;;11.80;99.90;;;;;;5013796;28;20073;-66
2024/03/13 01:39:40;;;;;;;15.52;2.75;;;11.70;99.90;;;;;;5015246;28;20092;-66
2024/03/13 01:56:04;;;;;;;13.25;3.45;;;11.70;99.90;;;;;;5022685;28;20069;-66
2024/03/13 01:58:40;;;;;;;11.95;2.55;;;11.70;99.90;;;;;;5014446;28;20053;-66
2024/03/13 02:03:52;;;;;;;10.75;2.40;;;11.70;99.90;;;;;;5014344;28;20391;-66
2024/03/13 02:06:19;;;;;;;11.43;2.92;;;11.70;99.90;;;;;;5014137;28;20038;-67
2024/03/13 02:08:46;;;;;;;10.18;1.90;;;11.70;99.90;;;;;;5013661;28;20558;-66
2024/03/13 02:11:13;;;;;;;14.90;2.40;;;11.70;99.90;;;;;;5014224;28;20042;-66
2024/03/13 02:13:40;;;;;;;12.68;2.72;;;11.70;99.90;;;;;;5012819;28;20136;-66
2024/03/13 02:16:07;;;;;;;11.73;2.33;;;11.70;99.90;;;;;;5013689;28;20053;-65
2024/03/13 02:18:34;;;;;;;9.95;2.00;;;11.70;99.90;;;;;;5012788;28;20587;-66
2024/03/13 02:21:01;;;;;;;11.77;1.88;;;11.70;99.90;;;;;;5012622;28;20514;-66
2024/03/13 02:23:28;;;;;;;11.02;2.53;;;11.70;99.90;;;;;;5013683;28;20049;-67
2024/03/13 02:25:56;;;;;;;9.50;1.95;;;11.70;99.90;;;;;;5013472;28;20084;-66
2024/03/13 02:28:22;;;;;;;10.40;2.30;;;11.70;99.90;;;;;;5014088;28;20038;-66
2024/03/13 02:30:50;;;;;;;9.23;2.00;;;11.70;99.90;;;;;;5013726;28;20042;-66
2024/03/13 02:33:17;;;;;;;7.25;1.63;;;11.70;99.90;;;;;;5013881;28;20080;-66
2024/03/13 02:35:44;;;;;;;10.50;1.73;;;11.70;99.90;;;;;;5014013;28;20042;-66
2024/03/13 02:38:11;;;;;;;10.52;1.83;;;11.70;99.90;;;;;;5013733;28;20038;-66
2024/03/13 02:40:38;;;;;;;11.75;2.58;;;11.60;99.90;;;;;;5013562;28;20046;-66
2024/03/13 02:43:04;;;;;;;9.05;1.70;;;11.60;99.90;;;;;;5013198;28;20151;-66
2024/03/13 02:45:32;;;;;;;10.45;1.95;;;11.70;99.90;;;;;;5013300;28;20137;-66
2024/03/13 02:47:59;;;;;;;10.45;2.00;;;11.60;99.90;;;;;;5014163;28;20045;-66
2024/03/13 02:50:28;;;;;;;12.77;1.95;;;11.60;99.90;;;;;;5013868;28;20048;-66
2024/03/13 02:52:55;;;;;;;8.63;2.00;;;11.70;99.90;;;;;;5013924;28;20045;-66
2024/03/13 02:55:22;;;;;;;10.23;1.75;;;11.70;99.90;;;;;;5013849;28;20526;-66
2024/03/13 02:57:49;;;;;;;9.75;1.75;;;11.70;99.90;;;;;;5011962;28;20407;-66
2024/03/13 03:00:16;;;;;;;10.52;2.10;;;11.60;99.90;;;;;;5013731;28;20124;-66
2024/03/13 03:02:43;;;;;;;8.73;1.50;;;11.60;99.90;;;;;;5012619;28;20141;-66
2024/03/13 03:05:10;;;;;;;9.77;1.90;;;11.60;99.90;;;;;;5013210;28;20042;-66
2024/03/13 03:07:37;;;;;;;7.20;1.80;;;11.60;99.90;;;;;;5013795;28;20523;-66
2024/03/13 03:10:04;;;;;;;8.93;1.80;;;11.60;99.90;;;;;;5013413;28;20046;-66
2024/03/13 03:12:30;;;;;;;12.40;1.98;;;11.70;99.90;;;;;;5013500;28;20042;-66
2024/03/13 03:14:59;;;;;;;8.55;1.80;;;11.60;99.90;;;;;;5012167;28;20050;-66
2024/03/13 03:17:26;;;;;;;7.97;1.67;;;11.60;99.90;;;;;;5013866;28;20056;-66
2024/03/13 03:19:53;;;;;;;13.48;1.70;;;11.60;99.90;;;;;;5012583;28;20049;-66
2024/03/13 03:22:19;;;;;;;9.70;1.60;;;11.60;99.90;;;;;;5013767;28;20038;-66
2024/03/13 03:24:48;;;;;;;8.07;1.52;;;11.60;99.90;;;;;;5013373;28;20121;-66
2024/03/13 03:27:15;;;;;;;7.85;1.38;;;11.60;99.90;;;;;;5013661;28;20118;-66
2024/03/13 03:29:42;;;;;;;10.30;2.25;;;11.50;99.90;;;;;;5013436;28;20422;-66
2024/03/13 03:32:09;;;;;;;7.88;1.50;;;11.50;99.90;;;;;;5013511;28;20085;-66
2024/03/13 03:34:36;;;;;;;8.27;1.55;;;11.50;99.90;;;;;;5013703;28;20038;-66
2024/03/13 03:37:03;;;;;;;9.43;1.70;;;11.50;99.90;;;;;;5011925;28;20502;-66
2024/03/13 03:39:30;;;;;;;9.15;1.65;;;11.50;99.90;;;;;;5012440;28;20553;-65
2024/03/13 03:41:57;;;;;;;7.93;1.60;;;11.50;99.90;;;;;;5013410;28;20562;-65
2024/03/13 03:44:24;;;;;;;8.13;1.75;;;11.40;99.90;;;;;;5013279;28;20041;-65
2024/03/13 03:46:51;;;;;;;6.72;1.50;;;11.40;99.90;;;;;;5012123;28;20050;-65
2024/03/13 03:49:18;;;;;;;6.93;1.80;;;11.30;99.90;;;;;;5013451;28;20042;-65
2024/03/13 03:51:44;;;;;;;10.18;2.15;;;11.30;99.90;;;;;;5013396;28;20038;-65
2024/03/13 03:54:11;;;;;;;9.38;1.70;;;11.30;99.90;;;;;;5013186;28;20061;-65
2024/03/13 03:56:38;;;;;;;6.40;1.30;;;11.30;99.90;;;;;;5013244;28;20037;-65
2024/03/13 03:59:07;;;;;;;7.40;1.45;;;11.30;99.90;;;;;;5013423;28;20042;-65
2024/03/13 04:01:35;;;;;;;9.30;1.58;;;11.30;99.90;;;;;;5012201;28;20046;-65
2024/03/13 04:04:03;;;;;;;8.38;1.75;;;11.30;99.90;;;;;;5013288;28;20042;-65
2024/03/13 04:06:30;;;;;;;8.90;1.50;;;11.30;99.90;;;;;;5012801;28;20049;-65
2024/03/13 04:08:57;;;;;;;7.85;1.40;;;11.30;99.90;;;;;;5013287;28;20121;-65
2024/03/13 04:11:24;;;;;;;5.30;1.40;;;11.30;99.90;;;;;;5015471;28;20133;-65
2024/03/13 04:13:51;;;;;;;7.65;1.58;;;11.30;99.90;;;;;;5016674;28;20220;-65
2024/03/13 04:16:18;;;;;;;8.23;1.95;;;11.30;99.90;;;;;;5015080;28;20133;-64
2024/03/13 04:18:45;;;;;;;6.75;1.35;;;11.30;99.90;;;;;;5016703;28;20069;-65
2024/03/13 04:21:12;;;;;;;5.18;1.20;;;11.30;99.90;;;;;;5016358;28;20108;-65
2024/03/13 04:23:41;;;;;;;5.97;1.10;;;11.30;99.90;;;;;;5016485;28;20109;-65
2024/03/13 04:26:08;;;;;;;6.43;1.30;;;11.30;99.90;;;;;;5016393;28;20076;-65
2024/03/13 04:28:37;;;;;;;4.60;1.20;;;11.30;99.90;;;;;;5016439;28;20034;-65
2024/03/13 04:31:04;;;;;;;7.47;1.52;;;11.30;99.90;;;;;;5016463;28;20375;-65
2024/03/13 04:33:30;;;;;;;7.90;1.10;;;11.30;99.90;;;;;;5016421;28;20069;-65
2024/03/13 04:35:57;;;;;;;4.43;0.98;;;11.30;99.90;;;;;;5016120;28;20525;-65
2024/03/13 04:38:24;;;;;;;5.53;1.15;;;11.30;99.90;;;;;;5016207;28;20038;-65
2024/03/13 04:40:51;;;;;;;3.95;0.88;;;11.40;99.90;;;;;;5015830;28;20100;-65
2024/03/13 04:43:18;;;;;;;4.70;0.98;;;11.40;99.90;;;;;;5014767;28;20046;-65
2024/03/13 04:45:45;;;;;;;9.32;1.65;;;11.40;99.90;;;;;;5014845;28;20188;-65
2024/03/13 04:48:13;;;;;;;4.43;0.98;;;11.40;99.90;;;;;;5015644;28;20038;-65
2024/03/13 04:50:40;;;;;;;5.45;1.10;;;11.40;99.90;;;;;;5015559;28;20458;-65
2024/03/13 04:53:06;;;;;;;3.75;1.10;;;11.40;99.90;;;;;;5015476;28;20066;-65
2024/03/13 04:55:33;;;;;;;7.60;1.55;;;11.40;99.90;;;;;;5015168;28;20598;-65
2024/03/13 04:58:00;;;;;;;4.88;0.88;;;11.40;99.90;;;;;;5015352;28;20049;-66
2024/03/13 05:00:27;;;;;;;3.55;0.70;;;11.40;99.90;;;;;;5015203;28;20050;-66
2024/03/13 05:02:55;;;;;;;5.53;0.95;;;11.40;99.90;;;;;;5014211;28;20045;-66
2024/03/13 05:05:21;;;;;;;3.97;1.33;;;11.30;99.90;;;;;;5015361;28;20135;-65
2024/03/13 05:07:48;;;;;;;6.97;0.98;;;11.30;99.90;;;;;;5014057;28;20431;-66
2024/03/13 05:10:16;;;;;;;4.25;1.00;;;11.30;99.90;;;;;;5015058;28;20104;-65
2024/03/13 05:12:46;;;;;;;3.95;0.73;;;11.30;99.90;;;;;;5014946;28;20069;-65
2024/03/13 05:15:13;;;;;;;3.92;1.05;;;11.30;99.90;;;;;;5014867;28;20535;-66
2024/03/13 05:17:40;;;;;;;7.32;0.90;;;11.30;99.90;;;;;;5015160;28;20141;-65
2024/03/13 05:20:10;;;;;;;5.53;0.95;;;11.30;99.90;;;;;;5015128;28;20406;-66
2024/03/13 05:22:37;;;;;;;4.47;0.85;;;11.30;99.90;;;;;;5014085;28;20045;-65
2024/03/13 05:25:17;;;;;;;3.75;1.13;;;11.40;99.90;;;;;;5014913;28;20034;-66
2024/03/13 05:27:46;;;;;;;2.95;0.90;;;11.30;99.90;;;;;;5014837;28;20061;-65
2024/03/13 05:30:13;;;;;;;3.38;0.77;;;11.30;99.90;;;;;;5014969;28;20038;-65
2024/03/13 05:32:40;;;;;;;4.90;1.20;;;11.30;99.90;;;;;;5014772;28;20038;-64
2024/03/13 05:35:08;;;;;;;5.18;1.42;;;11.30;99.90;;;;;;5014614;28;20077;-65
2024/03/13 05:37:34;;;;;;;3.95;1.00;;;11.30;99.90;;;;;;5014632;28;20046;-66
2024/03/13 05:42:59;;;;;;;6.00;1.23;;;11.30;99.90;;;;;;5017831;28;20173;-65
2024/03/13 05:45:26;;;;;;;3.85;1.35;;;11.30;99.90;;;;;;5014569;28;20479;-65
2024/03/13 05:47:54;;;;;;;5.03;1.50;;;11.30;99.90;;;;;;5014590;28;20044;-65
2024/03/13 05:50:21;;;;;;;5.45;1.40;;;11.30;99.90;;;;;;5014721;28;20045;-65
2024/03/13 05:52:48;;;;;;;4.50;1.60;;;11.30;99.90;;;;;;5014814;28;20053;-65
2024/03/13 05:55:15;;;;;;;8.38;1.30;;;11.30;99.90;;;;;;5014448;28;20046;-65
2024/03/13 05:57:47;;;;;;;6.30;1.65;;;11.30;99.90;;;;;;5014984;28;20046;-65
2024/03/13 06:00:17;;;;;;;9.40;1.80;;;11.30;99.90;;;;;;5014556;28;20073;-65
2024/03/13 06:02:44;;;;;;;6.82;1.30;;;11.30;99.90;;;;;;5014731;28;20128;-65
2024/03/13 06:05:16;;;;;;;6.85;1.60;;;11.30;99.90;;;;;;5014377;28;20038;-65
2024/03/13 06:07:43;;;;;;;7.63;1.40;;;11.20;99.90;;;;;;5013171;28;20037;-65
2024/03/13 06:10:11;;;;;;;7.15;1.42;;;11.30;99.90;;;;;;5014245;28;20040;-65
2024/03/13 06:12:38;;;;;;;6.63;1.60;;;11.30;99.90;;;;;;5013909;28;20509;-65
2024/03/13 06:15:08;;;;;;;7.60;1.67;;;11.30;99.90;;;;;;5014161;28;20159;-65
2024/03/13 06:17:35;;;;;;;6.57;1.70;;;11.30;99.90;;;;;;5012858;28;20495;-65
2024/03/13 06:20:03;;;;;;;7.03;1.60;;;11.20;99.90;;;;;;5014177;28;20041;-65
2024/03/13 06:22:30;;;;;;;6.75;1.70;;;11.30;99.90;;;;;;5012575;28;20046;-65
2024/03/13 06:25:00;;;;;;;7.10;1.52;;;11.30;99.90;;;;;;5013653;28;20139;-65
2024/03/13 06:27:27;;;;;;;7.97;1.83;;;11.30;99.90;;;;;;5013764;28;20292;-65
2024/03/13 06:29:58;;;;;;;10.30;2.25;;;11.30;99.90;;;;;;5013643;28;20048;-66
2024/03/13 06:32:34;;;;;;;8.85;2.42;;;11.30;99.90;;;;;;5013480;28;20068;-66
2024/03/13 06:35:02;;;;;;;12.10;2.63;;;11.30;99.90;;;;;;5012350;28;20054;-65
2024/03/13 06:37:31;;;;;;;5.93;1.58;;;11.30;99.90;;;;;;5012538;28;20045;-64
2024/03/13 06:39:58;;;;;;;7.57;2.00;;;11.30;99.90;;;;;;5012082;28;20103;-65
2024/03/13 06:42:25;;;;;;;9.55;2.53;;;11.30;99.90;;;;;;5013566;28;20038;-65
2024/03/13 06:44:52;;;;;;;9.73;2.53;;;11.30;99.90;;;;;;5012296;28;20407;-65
2024/03/13 06:47:21;;;;;;;10.85;2.10;;;11.30;99.90;;;;;;5013125;28;20045;-65
2024/03/13 06:49:48;;;;;;;10.48;2.90;;;11.30;99.90;;;;;;5013389;28;20140;-65
2024/03/13 06:52:15;;;;;;;9.20;2.30;;;11.30;99.90;;;;;;5013199;28;20045;-64
2024/03/13 06:54:42;;;;;;;9.20;2.38;;;11.30;99.90;;;;;;5013432;28;20038;-64
2024/03/13 06:57:17;;;;;;;10.25;2.13;;;11.30;99.90;;;;;;5013072;28;20047;-64
2024/03/13 06:59:44;;;;;;;7.22;2.58;;;11.30;99.90;;;;;;5012120;28;20096;-64
2024/03/13 07:02:17;;;;;;;10.90;2.35;;;11.30;99.90;;;;;;5012764;28;20049;-63
2024/03/13 07:04:44;;;;;;;8.30;2.15;;;11.30;99.90;;;;;;5013432;28;20046;-64
2024/03/13 07:07:10;;;;;;;10.93;2.78;;;11.30;99.90;;;;;;5013175;28;20467;-64
2024/03/13 07:09:38;;;;;;;9.80;2.30;;;11.30;99.90;;;;;;5013214;28;20046;-64
2024/03/13 07:12:04;;;;;;;8.95;2.30;;;11.30;99.90;;;;;;5012988;28;20046;-64
2024/03/13 07:14:31;;;;;;;8.30;2.38;;;11.40;99.90;;;;;;5012816;28;20513;-64
2024/03/13 07:16:58;;;;;;;8.02;2.38;;;11.40;99.90;;;;;;5012871;28;20104;-64
2024/03/13 07:19:25;;;;;;;10.48;2.25;;;11.40;99.90;;;;;;5013240;28;20536;-64
2024/03/13 07:21:52;;;;;;;7.63;2.70;;;11.40;99.90;;;;;;5013089;28;20049;-64
2024/03/13 07:24:19;;;;;;;10.68;2.83;;;11.40;99.90;;;;;;5013144;28;20045;-64
2024/03/13 07:26:46;;;;;;;7.55;2.60;;;11.40;99.90;;;;;;5012994;28;20038;-64
2024/03/13 07:29:13;;;;;;;11.18;2.97;;;11.50;99.90;;;;;;5013077;28;20044;-64
2024/03/13 07:31:41;;;;;;;10.80;3.20;;;11.40;99.90;;;;;;5013120;28;20424;-64
2024/03/13 07:34:09;;;;;;;9.57;2.80;;;11.50;99.90;;;;;;5012867;28;20112;-64
2024/03/13 07:36:37;;;;;;;10.13;2.97;;;11.50;99.90;;;;;;5012993;28;20108;-64
2024/03/13 07:39:10;;;;;;;8.30;2.75;;;11.40;99.90;;;;;;5013006;28;20483;-65
2024/03/13 07:41:39;;;;;;;9.18;3.60;;;11.50;99.90;;;;;;5013144;28;20057;-65
2024/03/13 07:44:11;;;;;;;6.22;2.40;;;11.50;99.90;;;;;;5012988;28;20037;-64
2024/03/13 07:46:38;;;;;;;8.07;2.58;;;11.60;99.90;;;;;;5016403;28;20390;-65
2024/03/13 07:49:05;;;;;;;7.85;2.10;;;11.60;99.90;;;;;;5016696;28;20037;-65
2024/03/13 07:51:32;;;;;;;6.20;1.80;;;11.60;99.90;;;;;;5016666;28;20037;-65
2024/03/13 07:53:59;;;;;;;12.45;2.80;;;11.60;99.90;;;;;;5016972;28;20077;-64
2024/03/13 07:56:26;;;;;;;5.82;1.65;;;11.70;99.90;;;;;;5016542;28;20042;-64
2024/03/13 07:58:53;;;;;;;8.57;1.60;;;11.70;99.90;;;;;;5016501;28;20042;-65
2024/03/13 08:01:20;;;;;;;7.57;1.50;;;11.70;99.90;;;;;;5016833;28;20053;-64
2024/03/13 08:03:47;;;;;;;5.18;1.45;;;11.70;99.90;;;;;;5016885;28;20038;-65
2024/03/13 08:06:14;;;;;;;10.25;1.80;;;11.70;99.90;;;;;;5016603;28;20045;-64
2024/03/13 08:08:58;;;;;;;7.53;1.55;;;11.80;99.90;;;;;;5017034;28;20112;-64
2024/03/13 08:11:43;;;;;;;9.27;1.50;;;11.80;99.90;;;;;;5015282;28;20041;-64
2024/03/13 08:14:27;;;;;;;5.40;1.10;;;11.80;99.90;;;;;;5015070;28;20026;-64
2024/03/13 08:17:11;;;;;;;8.90;1.30;;;11.90;99.90;;;;;;5016422;28;20029;-65
2024/03/13 08:19:55;;;;;;;6.53;1.27;;;11.90;99.90;;;;;;5015177;28;20121;-65
2024/03/13 08:22:42;;;;;;;9.07;1.30;;;11.90;99.90;;;;;;5016333;28;20072;-64
2024/03/13 08:25:26;;;;;;;7.57;1.73;;;11.90;99.90;;;;;;5016258;28;20089;-65
2024/03/13 08:28:10;;;;;;;8.07;1.50;;;12.00;99.90;;;;;;5016278;28;20471;-64
2024/03/13 08:30:56;;;;;;;5.60;1.38;;;12.00;99.90;;;;;;5015955;28;20490;-64
2024/03/13 08:33:42;;;;;;;8.85;1.45;;;12.00;99.90;;;;;;5016056;28;20399;-65
2024/03/13 08:36:26;;;;;;;5.60;1.10;;;12.00;99.90;;;;;;5014427;28;20411;-65
2024/03/13 08:39:12;;;;;;;6.88;1.50;;;12.10;99.90;;;;;;5015779;28;20379;-65
2024/03/13 08:41:57;;;;;;;10.52;1.55;;;12.10;99.90;;;;;;5014818;28;20037;-65
2024/03/13 08:44:42;;;;;;;7.35;1.40;;;12.20;99.90;;;;;;5015800;28;20400;-64
2024/03/13 08:47:29;;;;;;;7.43;1.30;;;12.10;99.90;;;;;;5015681;28;20349;-65
2024/03/13 08:50:14;;;;;;;5.95;1.25;;;12.20;99.90;;;;;;5015709;28;20045;-64
2024/03/13 08:52:58;;;;;;;5.82;1.30;;;12.20;99.90;;;;;;5015472;28;20026;-64
2024/03/13 08:55:42;;;;;;;6.43;1.80;;;12.20;99.90;;;;;;5014943;28;20121;-65
2024/03/13 08:58:26;;;;;;;4.85;1.38;;;12.20;99.90;;;;;;5015263;28;20392;-64
2024/03/13 09:01:10;;;;;;;5.28;1.20;;;12.20;99.90;;;;;;5015261;28;20037;-65
2024/03/13 09:03:56;;;;;;;6.53;1.00;;;12.30;99.90;;;;;;5015201;28;20044;-65
2024/03/13 09:06:40;;;;;;;5.72;1.42;;;12.30;99.90;;;;;;5015101;28;20513;-65
2024/03/13 09:09:07;;;;;;;6.30;1.10;;;12.30;99.90;;;;;;5015225;28;20041;-65
2024/03/13 09:11:34;;;;;;;5.97;1.08;;;12.30;99.90;;;;;;5015143;28;20044;-65
2024/03/13 09:14:03;;;;;;;5.22;0.98;;;12.30;99.90;;;;;;5015370;28;20037;-66
2024/03/13 09:16:31;;;;;;;4.85;1.10;;;12.30;99.90;;;;;;5014847;28;20116;-65
2024/03/13 09:18:58;;;;;;;4.65;1.00;;;12.30;99.90;;;;;;5014938;28;20107;-65
2024/03/13 09:21:26;;;;;;;5.30;0.93;;;12.30;99.90;;;;;;5013632;28;20152;-65
2024/03/13 09:23:52;;;;;;;6.60;0.90;;;12.30;99.90;;;;;;5014410;28;20459;-65
2024/03/13 09:26:19;;;;;;;5.55;1.08;;;12.30;99.90;;;;;;5014747;28;20055;-65
2024/03/13 09:28:46;;;;;;;9.23;1.20;;;12.40;99.90;;;;;;5015091;28;20038;-65
2024/03/13 09:31:13;;;;;;;5.00;1.10;;;12.40;99.90;;;;;;5014780;28;20088;-65
2024/03/13 09:33:40;;;;;;;2.83;0.82;;;12.40;99.90;;;;;;5014728;28;20041;-65
2024/03/13 09:36:08;;;;;;;4.57;1.08;;;12.30;99.90;;;;;;5014385;28;20042;-65
2024/03/13 09:38:35;;;;;;;7.00;1.05;;;12.30;99.90;;;;;;5013071;28;20092;-65
2024/03/13 09:41:02;;;;;;;4.45;1.25;;;12.30;99.90;;;;;;5014590;28;20038;-65
2024/03/13 09:43:29;;;;;;;10.27;1.55;;;12.30;99.90;;;;;;5014367;28;20041;-67
2024/03/13 09:45:56;;;;;;;6.00;1.27;;;12.30;99.90;;;;;;5014120;28;20100;-67
2024/03/13 09:48:22;;;;;;;9.50;1.58;;;12.30;99.90;;;;;;5014293;28;20073;-67
2024/03/13 09:50:49;;;;;;;6.90;1.33;;;12.20;99.90;;;;;;5014399;28;20133;-67
2024/03/13 09:53:21;;;;;;;9.23;1.60;;;12.20;99.90;;;;;;5014216;28;20050;-67
2024/03/13 09:55:48;;;;;;;8.30;1.50;;;12.30;99.90;;;;;;5013794;28;20049;-67
2024/03/13 09:58:16;;;;;;;5.57;1.20;;;12.20;99.90;;;;;;5014261;28;20083;-67
2024/03/13 10:00:43;;;;;;;5.13;1.00;;;12.30;99.90;;;;;;5014081;28;20046;-67
2024/03/13 10:03:12;;;;;;;5.50;1.27;;;12.30;99.90;;;;;;5013829;28;20456;-67
2024/03/13 10:05:39;;;;;;;5.50;1.20;;;12.30;99.90;;;;;;5013883;28;20057;-67
2024/03/13 10:08:06;;;;;;;7.70;1.50;;;12.30;99.90;;;;;;5012378;28;20053;-67
2024/03/13 10:10:33;;;;;;;6.00;1.15;;;12.40;99.90;;;;;;5014003;28;20042;-67
2024/03/13 10:13:01;;;;;;;5.28;1.27;;;12.40;99.90;;;;;;5014151;28;20046;-67
2024/03/13 10:15:29;;;;;;;6.18;1.30;;;12.50;99.90;;;;;;5012181;28;20415;-67
2024/03/13 10:17:56;;;;;;;7.30;1.48;;;12.50;99.90;;;;;;5013990;28;20049;-66
2024/03/13 10:20:23;;;;;;;6.18;1.33;;;12.50;99.90;;;;;;5013992;28;20049;-65
2024/03/13 10:22:50;;;;;;;8.27;2.20;;;12.50;99.90;;;;;;5014161;28;20054;-66
2024/03/13 10:25:19;;;;;;;10.98;2.13;;;12.50;99.90;;;;;;5013681;28;20038;-66
2024/03/13 10:27:45;;;;;;;9.73;1.60;;;12.60;99.90;;;;;;5013666;28;20048;-66
2024/03/13 10:30:12;;;;;;;6.15;1.65;;;12.60;99.90;;;;;;5013866;28;20038;-65
2024/03/13 10:32:39;;;;;;;8.15;1.85;;;12.60;99.90;;;;;;5014074;28;20422;-66
2024/03/13 10:35:06;;;;;;;7.03;1.45;;;12.70;99.90;;;;;;5013892;28;20073;-65
2024/03/13 10:37:35;;;;;;;6.47;1.65;;;12.70;99.90;;;;;;5013463;28;20045;-65
2024/03/13 10:40:02;;;;;;;9.75;1.50;;;12.70;99.90;;;;;;5012207;28;20468;-65
2024/03/13 10:42:29;;;;;;;11.38;1.70;;;12.80;99.90;;;;;;5013754;28;20435;-66
2024/03/13 10:44:58;;;;;;;8.75;1.85;;;12.70;99.90;;;;;;5013606;28;20045;-66
2024/03/13 10:47:26;;;;;;;7.32;1.75;;;12.70;99.90;;;;;;5013714;28;20092;-66
2024/03/13 10:49:53;;;;;;;10.52;2.40;;;12.70;99.90;;;;;;5013678;28;20449;-66
2024/03/13 10:52:20;;;;;;;10.15;2.42;;;12.60;99.90;;;;;;5013382;28;20073;-66
2024/03/13 10:54:46;;;;;;;9.52;1.95;;;12.60;99.90;;;;;;5012484;28;20116;-66
2024/03/13 10:57:13;;;;;;;9.20;2.15;;;12.60;99.90;;;;;;5013334;28;20050;-66
2024/03/13 10:59:41;;;;;;;5.93;1.60;;;12.60;99.90;;;;;;5013691;28;20402;-66
2024/03/13 11:02:08;;;;;;;11.20;1.83;;;12.60;99.90;;;;;;5013360;28;20048;-66
2024/03/13 11:04:35;;;;;;;5.80;1.38;;;12.60;99.90;;;;;;5013477;28;20041;-66
2024/03/13 11:07:03;;;;;;;7.53;1.85;;;12.60;99.90;;;;;;5012082;28;20434;-66
2024/03/13 11:09:29;;;;;;;8.25;1.70;;;12.60;99.90;;;;;;5013453;28;20045;-66
2024/03/13 11:11:56;;;;;;;11.25;1.90;;;12.60;99.90;;;;;;5012437;28;20034;-66
2024/03/13 11:14:23;;;;;;;17.15;2.47;;;12.60;99.90;;;;;;5012120;28;20065;-66
2024/03/13 11:16:50;;;;;;;9.27;1.98;;;12.60;99.90;;;;;;5011923;28;20061;-66
2024/03/13 11:19:17;;;;;;;10.10;1.92;;;12.60;99.90;;;;;;5012703;28;20144;-66
2024/03/13 11:21:44;;;;;;;8.38;1.67;;;12.60;99.90;;;;;;5017756;28;20042;-66
2024/03/13 11:24:11;;;;;;;10.45;2.00;;;12.70;99.90;;;;;;5017319;28;20041;-66
2024/03/13 11:26:38;;;;;;;8.23;2.00;;;12.70;99.90;;;;;;5017268;28;20057;-66
2024/03/13 11:29:05;;;;;;;7.80;1.92;;;12.80;99.90;;;;;;5017515;28;20133;-66
2024/03/13 11:31:33;;;;;;;7.43;2.28;;;12.80;99.90;;;;;;5017268;28;20371;-66
2024/03/13 11:34:00;;;;;;;6.40;1.85;;;12.80;99.90;;;;;;5017040;28;20042;-66
2024/03/13 11:36:27;;;;;;;7.07;1.90;;;12.90;99.90;;;;;;5017014;28;20526;-66
2024/03/13 11:38:54;;;;;;;8.55;2.47;;;12.90;99.90;;;;;;5017212;28;20065;-66
2024/03/13 11:41:20;;;;;;;3.63;1.40;;;12.90;99.90;;;;;;5017573;28;20110;-66
2024/03/13 11:43:47;;;;;;;7.20;1.77;;;12.90;99.90;;;;;;5016866;28;20038;-67
2024/03/13 11:46:17;;;;;;;6.07;1.45;;;12.90;99.90;;;;;;5017165;28;20068;-67
2024/03/13 11:48:45;;;;;;;4.85;1.40;;;12.90;99.90;;;;;;5015150;28;20419;-67
2024/03/13 11:51:13;;;;;;;5.50;1.70;;;12.90;99.90;;;;;;5016968;28;20042;-67
2024/03/13 11:53:41;;;;;;;3.53;1.20;;;12.80;99.90;;;;;;5016922;28;20050;-67
2024/03/13 11:56:09;;;;;;;4.82;1.23;;;12.80;99.90;;;;;;5015383;28;20454;-67
2024/03/13 11:58:38;;;;;;;6.82;1.52;;;12.70;99.90;;;;;;5016988;28;20046;-67
2024/03/13 12:01:12;;;;;;;7.13;1.45;;;12.70;99.90;;;;;;5016670;28;20503;-67
2024/03/13 12:03:43;;;;;;;5.07;1.25;;;12.70;99.90;;;;;;5015625;28;20037;-67
2024/03/13 12:06:10;;;;;;;6.72;1.92;;;12.70;99.90;;;;;;5016997;28;20042;-65
2024/03/13 12:08:38;;;;;;;5.88;1.38;;;12.80;99.90;;;;;;5016645;28;20041;-65
2024/03/13 12:11:05;;;;;;;7.40;1.30;;;12.70;99.90;;;;;;5015389;28;20124;-65
2024/03/13 12:13:33;;;;;;;5.47;1.45;;;12.70;99.90;;;;;;5016147;28;20042;-65
2024/03/13 12:16:00;;;;;;;6.20;1.30;;;12.70;99.90;;;;;;5015690;28;20054;-65
2024/03/13 12:18:27;;;;;;;7.72;1.80;;;12.80;99.90;;;;;;5015199;28;20048;-65
2024/03/13 12:20:54;;;;;;;6.43;1.80;;;12.80;99.90;;;;;;5016103;28;20042;-66
2024/03/13 12:23:22;;;;;;;7.15;1.48;;;12.80;99.90;;;;;;5016232;28;20042;-66
2024/03/13 12:25:50;;;;;;;5.63;1.55;;;12.80;99.90;;;;;;5016030;28;20132;-66
2024/03/13 12:28:17;;;;;;;5.80;1.67;;;12.70;99.90;;;;;;5016391;28;20133;-66
2024/03/13 12:30:48;;;;;;;6.38;1.60;;;12.70;99.90;;;;;;5015813;28;20038;-66
2024/03/13 12:33:15;;;;;;;8.00;1.70;;;12.80;99.90;;;;;;5016052;28;20538;-67
2024/03/13 12:35:49;;;;;;;8.70;1.60;;;12.70;99.90;;;;;;5014659;28;20463;-66
2024/03/13 12:38:16;;;;;;;5.97;1.48;;;12.80;99.90;;;;;;5015996;28;20121;-66
2024/03/13 12:40:44;;;;;;;8.43;2.08;;;12.80;99.90;;;;;;5015612;28;20049;-67
2024/03/13 12:43:14;;;;;;;7.93;1.50;;;12.80;99.90;;;;;;5016158;28;20129;-66
2024/03/13 12:45:41;;;;;;;10.05;2.15;;;12.80;99.90;;;;;;5016010;28;20494;-67
2024/03/13 12:48:08;;;;;;;8.13;2.05;;;12.80;99.90;;;;;;5015676;28;20038;-66
2024/03/13 12:50:35;;;;;;;7.20;2.35;;;12.80;99.90;;;;;;5015830;28;20071;-66
2024/03/13 12:53:04;;;;;;;7.05;1.58;;;12.80;99.90;;;;;;5015581;28;20411;-66
2024/03/13 12:55:32;;;;;;;6.10;1.65;;;12.80;99.90;;;;;;5015322;28;20053;-66
2024/03/13 12:58:05;;;;;;;6.55;1.60;;;12.80;99.90;;;;;;5015807;28;20431;-67
2024/03/13 13:00:33;;;;;;;6.28;2.00;;;12.80;99.90;;;;;;5015349;28;20050;-67
2024/03/13 13:03:00;;;;;;;10.48;2.45;;;12.80;99.90;;;;;;5015699;28;20038;-67
2024/03/13 13:05:30;;;;;;;7.22;1.90;;;12.90;99.90;;;;;;5015547;28;20108;-66
2024/03/13 13:07:56;;;;;;;8.60;2.10;;;13.00;99.90;;;;;;5015717;28;20048;-65
2024/03/13 13:10:26;;;;;;;8.70;1.80;;;13.10;99.90;;;;;;5015362;28;20424;-64
2024/03/13 13:12:53;;;;;;;6.47;1.60;;;13.10;99.90;;;;;;5015113;28;20043;-64